createdAt,value
2017-09-12T00:00:37.686Z,992.60
2017-09-12T00:01:31.951Z,992.65
2017-09-12T00:02:26.446Z,992.59
2017-09-12T00:03:27.541Z,992.64
2017-09-12T00:04:16.542Z,992.59
2017-09-12T00:05:11.813Z,992.53
2017-09-12T00:06:11.982Z,992.60
2017-09-12T00:07:01.081Z,992.53
2017-09-12T00:07:54.773Z,992.55
2017-09-12T00:08:49.983Z,992.48
2017-09-12T00:09:43.804Z,992.53
2017-09-12T00:10:37.918Z,992.52
2017-09-12T00:11:32.216Z,992.54
2017-09-12T00:12:27.184Z,992.56
2017-09-12T00:13:26.909Z,992.56
2017-09-12T00:14:21.960Z,992.52
2017-09-12T00:15:16.217Z,992.60
2017-09-12T00:16:16.149Z,992.61
2017-09-12T00:17:04.483Z,992.56
2017-09-12T00:18:05.365Z,992.58
2017-09-12T00:18:54.230Z,992.55
2017-09-12T00:19:49.241Z,992.57
2017-09-12T00:20:37.503Z,992.55
2017-09-12T00:21:25.877Z,992.65
2017-09-12T00:22:19.562Z,992.60
2017-09-12T00:23:08.589Z,992.57
2017-09-12T00:24:02.479Z,992.55
2017-09-12T00:24:57.579Z,992.56
2017-09-12T00:25:57.463Z,992.55
2017-09-12T00:26:52.516Z,992.60
2017-09-12T00:27:47.090Z,992.57
2017-09-12T00:28:41.609Z,992.62
2017-09-12T00:29:30.120Z,992.57
2017-09-12T00:30:24.677Z,992.60
2017-09-12T00:31:26.139Z,992.67
2017-09-12T00:32:19.746Z,992.69
2017-09-12T00:33:08.838Z,992.61
2017-09-12T00:34:04.093Z,992.75
2017-09-12T00:34:58.011Z,992.67
2017-09-12T00:35:52.377Z,992.70
2017-09-12T00:36:47.398Z,992.76
2017-09-12T00:37:40.992Z,992.73
2017-09-12T00:38:36.127Z,992.76
2017-09-12T00:39:30.986Z,992.78
2017-09-12T00:40:20.025Z,992.69
2017-09-12T00:41:08.100Z,992.68
2017-09-12T00:42:08.566Z,992.74
2017-09-12T00:43:03.200Z,992.79
2017-09-12T00:44:03.258Z,992.72
2017-09-12T00:44:57.642Z,992.78
2017-09-12T00:45:51.544Z,992.79
2017-09-12T00:46:45.700Z,992.75
2017-09-12T00:47:40.340Z,992.78
2017-09-12T00:48:34.645Z,992.75
2017-09-12T00:49:23.561Z,992.78
2017-09-12T00:50:17.650Z,992.78
2017-09-12T00:51:11.657Z,992.83
2017-09-12T00:52:05.826Z,992.78
2017-09-12T00:53:00.730Z,992.82
2017-09-12T00:53:54.579Z,992.81
2017-09-12T00:54:54.825Z,992.80
2017-09-12T00:55:49.756Z,992.78
2017-09-12T00:56:44.125Z,992.78
2017-09-12T00:57:38.811Z,992.72
2017-09-12T00:58:34.045Z,992.83
2017-09-12T00:59:27.888Z,992.84
2017-09-12T01:00:22.281Z,992.75
2017-09-12T01:01:16.911Z,992.80
2017-09-12T01:02:11.315Z,992.85
2017-09-12T01:03:05.423Z,992.94
2017-09-12T01:04:00.478Z,992.87
2017-09-12T01:04:55.498Z,992.83
2017-09-12T01:05:44.266Z,992.85
2017-09-12T01:06:32.510Z,992.85
2017-09-12T01:07:27.567Z,992.89
2017-09-12T01:08:21.636Z,992.85
2017-09-12T01:09:10.456Z,992.98
2017-09-12T01:10:10.695Z,992.93
2017-09-12T01:11:04.275Z,992.97
2017-09-12T01:12:04.701Z,992.89
2017-09-12T01:12:59.369Z,992.97
2017-09-12T01:13:53.834Z,993.01
2017-09-12T01:14:48.696Z,992.93
2017-09-12T01:15:42.533Z,993.09
2017-09-12T01:16:42.952Z,993.03
2017-09-12T01:17:36.614Z,993.06
2017-09-12T01:18:31.674Z,993.11
2017-09-12T01:19:19.708Z,992.98
2017-09-12T01:20:20.136Z,993.08
2017-09-12T01:21:14.806Z,993.05
2017-09-12T01:22:04.102Z,993.00
2017-09-12T01:22:58.907Z,993.07
2017-09-12T01:23:52.865Z,993.11
2017-09-12T01:24:48.004Z,992.99
2017-09-12T01:25:41.931Z,993.09
2017-09-12T01:26:37.344Z,993.09
2017-09-12T01:27:38.079Z,993.08
2017-09-12T01:28:38.079Z,993.07
2017-09-12T01:29:33.049Z,993.10
2017-09-12T01:30:28.443Z,993.04
2017-09-12T01:31:22.641Z,993.02
2017-09-12T01:32:16.171Z,993.08
2017-09-12T01:33:11.657Z,993.10
2017-09-12T01:34:00.348Z,993.04
2017-09-12T01:34:54.331Z,993.06
2017-09-12T01:35:48.411Z,993.06
2017-09-12T01:36:42.557Z,993.08
2017-09-12T01:37:42.496Z,993.10
2017-09-12T01:38:37.654Z,993.10
2017-09-12T01:39:37.582Z,993.13
2017-09-12T01:40:32.576Z,993.12
2017-09-12T01:41:32.785Z,993.15
2017-09-12T01:42:26.577Z,993.08
2017-09-12T01:43:26.658Z,993.14
2017-09-12T01:44:21.215Z,993.21
2017-09-12T01:45:14.781Z,993.18
2017-09-12T01:46:08.968Z,993.20
2017-09-12T01:47:03.016Z,993.18
2017-09-12T01:47:52.252Z,993.21
2017-09-12T01:48:46.843Z,993.16
2017-09-12T01:49:42.047Z,993.18
2017-09-12T01:50:41.999Z,993.19
2017-09-12T01:51:31.359Z,993.17
2017-09-12T01:52:20.621Z,993.18
2017-09-12T01:53:15.324Z,993.22
2017-09-12T01:54:03.181Z,993.22
2017-09-12T01:54:57.184Z,993.25
2017-09-12T01:55:57.314Z,993.23
2017-09-12T01:56:57.259Z,993.21
2017-09-12T01:57:51.264Z,993.25
2017-09-12T01:58:46.634Z,993.25
2017-09-12T01:59:46.432Z,993.24
2017-09-12T02:00:40.425Z,993.23
2017-09-12T02:01:40.427Z,993.24
2017-09-12T02:02:34.488Z,993.28
2017-09-12T02:03:28.502Z,993.24
2017-09-12T02:04:22.585Z,993.26
2017-09-12T02:05:11.713Z,993.26
2017-09-12T02:06:06.663Z,993.18
2017-09-12T02:07:00.910Z,993.27
2017-09-12T02:08:00.775Z,993.25
2017-09-12T02:08:54.729Z,993.24
2017-09-12T02:09:54.862Z,993.28
2017-09-12T02:10:49.788Z,993.25
2017-09-12T02:11:50.598Z,993.25
2017-09-12T02:12:43.895Z,993.30
2017-09-12T02:13:44.931Z,993.26
2017-09-12T02:14:33.048Z,993.22
2017-09-12T02:15:33.004Z,993.27
2017-09-12T02:16:22.132Z,993.27
2017-09-12T02:17:16.221Z,993.28
2017-09-12T02:18:17.212Z,993.28
2017-09-12T02:19:11.120Z,993.30
2017-09-12T02:20:05.227Z,993.28
2017-09-12T02:21:00.198Z,993.22
2017-09-12T02:21:54.252Z,993.27
2017-09-12T02:22:48.484Z,993.28
2017-09-12T02:23:48.327Z,993.32
2017-09-12T02:24:42.326Z,993.31
2017-09-12T02:25:36.374Z,993.32
2017-09-12T02:26:30.463Z,993.34
2017-09-12T02:27:25.434Z,993.31
2017-09-12T02:28:19.985Z,993.30
2017-09-12T02:29:13.574Z,993.28
2017-09-12T02:30:08.587Z,993.38
2017-09-12T02:31:08.681Z,993.29
2017-09-12T02:31:57.686Z,993.29
2017-09-12T02:32:57.771Z,993.28
2017-09-12T02:33:45.864Z,993.30
2017-09-12T02:34:33.737Z,993.29
2017-09-12T02:35:27.794Z,993.33
2017-09-12T02:36:16.930Z,993.28
2017-09-12T02:37:11.421Z,993.32
2017-09-12T02:38:05.009Z,993.33
2017-09-12T02:39:04.939Z,993.29
2017-09-12T02:40:00.011Z,993.34
2017-09-12T02:41:00.050Z,993.29
2017-09-12T02:41:55.420Z,993.29
2017-09-12T02:42:55.131Z,993.33
2017-09-12T02:43:49.151Z,993.35
2017-09-12T02:44:50.311Z,993.33
2017-09-12T02:45:45.394Z,993.32
2017-09-12T02:46:45.273Z,993.35
2017-09-12T02:47:39.305Z,993.38
2017-09-12T02:48:28.358Z,993.38
2017-09-12T02:49:28.312Z,993.39
2017-09-12T02:50:28.486Z,993.35
2017-09-12T02:51:22.395Z,993.36
2017-09-12T02:52:16.995Z,993.35
2017-09-12T02:53:10.514Z,993.37
2017-09-12T02:54:05.779Z,993.36
2017-09-12T02:55:00.617Z,993.40
2017-09-12T02:55:49.611Z,993.39
2017-09-12T02:56:44.885Z,993.42
2017-09-12T02:57:39.923Z,993.43
2017-09-12T02:58:28.747Z,993.34
2017-09-12T02:59:22.973Z,993.36
2017-09-12T03:00:18.206Z,993.28
2017-09-12T03:01:17.853Z,993.36
2017-09-12T03:02:13.330Z,993.32
2017-09-12T03:03:07.892Z,993.37
2017-09-12T03:04:02.985Z,993.37
2017-09-12T03:05:03.327Z,993.34
2017-09-12T03:05:52.303Z,993.35
2017-09-12T03:06:41.524Z,993.33
2017-09-12T03:07:35.086Z,993.33
2017-09-12T03:08:29.523Z,993.39
2017-09-12T03:09:17.221Z,993.40
2017-09-12T03:10:11.289Z,993.36
2017-09-12T03:11:11.438Z,993.35
2017-09-12T03:12:05.316Z,993.34
2017-09-12T03:13:00.289Z,993.38
2017-09-12T03:13:54.392Z,993.36
2017-09-12T03:14:48.705Z,993.41
2017-09-12T03:15:42.730Z,993.39
2017-09-12T03:16:49.168Z,993.41
2017-09-12T03:17:37.712Z,993.36
2017-09-12T03:18:38.939Z,993.34
2017-09-12T03:19:27.548Z,993.39
2017-09-12T03:20:21.893Z,993.43
2017-09-12T03:21:16.890Z,993.47
2017-09-12T03:22:06.029Z,993.49
2017-09-12T03:23:06.063Z,993.43
2017-09-12T03:23:55.228Z,993.49
2017-09-12T03:24:54.807Z,993.52
2017-09-12T03:25:48.983Z,993.53
2017-09-12T03:26:49.129Z,993.54
2017-09-12T03:27:42.967Z,993.54
2017-09-12T03:28:43.056Z,993.58
2017-09-12T03:29:42.962Z,993.58
2017-09-12T03:30:44.180Z,993.60
2017-09-12T03:31:38.408Z,993.63
2017-09-12T03:32:39.116Z,993.62
2017-09-12T03:33:40.334Z,993.63
2017-09-12T03:34:34.582Z,993.64
2017-09-12T03:35:29.182Z,993.62
2017-09-12T03:36:24.455Z,993.64
2017-09-12T03:37:24.207Z,993.58
2017-09-12T03:38:18.310Z,993.66
2017-09-12T03:39:12.731Z,993.64
2017-09-12T03:40:12.451Z,993.65
2017-09-12T03:41:07.624Z,993.64
2017-09-12T03:41:55.924Z,993.63
2017-09-12T03:42:56.561Z,993.65
2017-09-12T03:43:56.621Z,993.66
2017-09-12T03:44:51.612Z,993.71
2017-09-12T03:45:45.691Z,993.70
2017-09-12T03:46:40.124Z,993.72
2017-09-12T03:47:34.660Z,993.73
2017-09-12T03:48:35.672Z,993.72
2017-09-12T03:49:29.820Z,993.78
2017-09-12T03:50:23.748Z,993.77
2017-09-12T03:51:19.062Z,993.73
2017-09-12T03:52:13.303Z,993.76
2017-09-12T03:53:06.823Z,993.79
2017-09-12T03:54:01.099Z,993.73
2017-09-12T03:54:50.170Z,993.83
2017-09-12T03:55:44.011Z,993.83
2017-09-12T03:56:39.650Z,993.80
2017-09-12T03:57:33.171Z,993.84
2017-09-12T03:58:33.261Z,993.88
2017-09-12T03:59:27.177Z,993.90
2017-09-12T04:00:21.325Z,993.87
2017-09-12T04:01:16.307Z,993.88
2017-09-12T04:02:05.222Z,993.90
2017-09-12T04:02:59.421Z,993.95
2017-09-12T04:03:48.508Z,993.96
2017-09-12T04:04:37.391Z,993.95
2017-09-12T04:05:26.412Z,993.97
2017-09-12T04:06:26.812Z,993.93
2017-09-12T04:07:14.913Z,993.97
2017-09-12T04:08:08.447Z,993.94
2017-09-12T04:09:02.569Z,993.96
2017-09-12T04:09:56.799Z,993.95
2017-09-12T04:10:45.717Z,993.95
2017-09-12T04:11:33.925Z,994.01
2017-09-12T04:12:28.035Z,993.97
2017-09-12T04:13:16.773Z,993.94
2017-09-12T04:14:11.876Z,994.00
2017-09-12T04:15:00.927Z,994.03
2017-09-12T04:15:56.283Z,994.04
2017-09-12T04:16:56.138Z,994.07
2017-09-12T04:17:50.001Z,994.05
2017-09-12T04:18:44.065Z,994.08
2017-09-12T04:19:38.117Z,994.15
2017-09-12T04:20:32.412Z,994.16
2017-09-12T04:21:26.512Z,994.10
2017-09-12T04:22:26.135Z,994.13
2017-09-12T04:23:21.484Z,994.15
2017-09-12T04:24:22.283Z,994.11
2017-09-12T04:25:11.417Z,994.13
2017-09-12T04:25:59.422Z,994.12
2017-09-12T04:26:53.810Z,994.12
2017-09-12T04:27:53.740Z,994.11
2017-09-12T04:28:47.416Z,994.14
2017-09-12T04:29:42.388Z,994.16
2017-09-12T04:30:31.791Z,994.10
2017-09-12T04:31:25.916Z,994.17
2017-09-12T04:32:20.564Z,994.15
2017-09-12T04:33:14.586Z,994.17
2017-09-12T04:34:08.653Z,994.14
2017-09-12T04:35:08.771Z,994.15
2017-09-12T04:36:08.699Z,994.13
2017-09-12T04:37:02.790Z,994.12
2017-09-12T04:37:56.811Z,994.10
2017-09-12T04:38:51.818Z,994.17
2017-09-12T04:39:40.787Z,994.13
2017-09-12T04:40:34.947Z,994.12
2017-09-12T04:41:35.493Z,994.12
2017-09-12T04:42:29.925Z,994.15
2017-09-12T04:43:30.046Z,994.09
2017-09-12T04:44:24.109Z,994.09
2017-09-12T04:45:25.166Z,994.09
2017-09-12T04:46:20.530Z,994.13
2017-09-12T04:47:14.134Z,994.14
2017-09-12T04:48:03.151Z,994.10
2017-09-12T04:48:57.245Z,994.12
2017-09-12T04:49:45.260Z,994.18
2017-09-12T04:50:40.402Z,994.16
2017-09-12T04:51:34.790Z,994.09
2017-09-12T04:52:23.804Z,994.14
2017-09-12T04:53:18.506Z,994.18
2017-09-12T04:54:06.523Z,994.18
2017-09-12T04:54:55.482Z,994.22
2017-09-12T04:55:49.686Z,994.23
2017-09-12T04:56:44.605Z,994.25
2017-09-12T04:57:38.682Z,994.29
2017-09-12T04:58:32.710Z,994.32
2017-09-12T04:59:26.800Z,994.36
2017-09-12T05:00:21.716Z,994.34
2017-09-12T05:01:09.842Z,994.36
2017-09-12T05:02:04.816Z,994.38
2017-09-12T05:03:04.932Z,994.42
2017-09-12T05:03:58.945Z,994.46
2017-09-12T05:04:52.902Z,994.44
2017-09-12T05:05:48.066Z,994.48
2017-09-12T05:06:43.344Z,994.50
2017-09-12T05:07:31.005Z,994.52
2017-09-12T05:08:25.198Z,994.54
2017-09-12T05:09:13.118Z,994.56
2017-09-12T05:10:08.195Z,994.59
2017-09-12T05:10:57.306Z,994.62
2017-09-12T05:11:57.571Z,994.62
2017-09-12T05:12:51.311Z,994.61
2017-09-12T05:13:46.325Z,994.65
2017-09-12T05:14:35.385Z,994.67
2017-09-12T05:15:30.355Z,994.68
2017-09-12T05:16:30.855Z,994.66
2017-09-12T05:17:30.773Z,994.69
2017-09-12T05:18:25.587Z,994.68
2017-09-12T05:19:19.594Z,994.67
2017-09-12T05:20:15.122Z,994.72
2017-09-12T05:21:03.612Z,994.73
2017-09-12T05:21:58.686Z,994.79
2017-09-12T05:22:53.124Z,994.73
2017-09-12T05:23:41.854Z,994.77
2017-09-12T05:24:36.770Z,994.77
2017-09-12T05:25:31.855Z,994.80
2017-09-12T05:26:19.913Z,994.80
2017-09-12T05:27:20.895Z,994.78
2017-09-12T05:28:21.333Z,994.86
2017-09-12T05:29:15.984Z,994.92
2017-09-12T05:30:16.113Z,994.87
2017-09-12T05:31:10.029Z,994.87
2017-09-12T05:32:04.046Z,994.90
2017-09-12T05:32:58.071Z,994.91
2017-09-12T05:33:52.464Z,994.95
2017-09-12T05:34:52.167Z,994.99
2017-09-12T05:35:46.403Z,994.99
2017-09-12T05:36:47.274Z,995.03
2017-09-12T05:37:41.378Z,995.01
2017-09-12T05:38:30.562Z,995.04
2017-09-12T05:39:18.384Z,995.00
2017-09-12T05:40:13.953Z,995.05
2017-09-12T05:41:07.503Z,995.06
2017-09-12T05:42:01.615Z,995.11
2017-09-12T05:42:49.540Z,995.14
2017-09-12T05:43:37.603Z,995.11
2017-09-12T05:44:37.638Z,995.11
2017-09-12T05:45:32.022Z,995.13
2017-09-12T05:46:32.174Z,995.14
2017-09-12T05:47:20.786Z,995.16
2017-09-12T05:48:08.765Z,995.17
2017-09-12T05:49:03.836Z,995.15
2017-09-12T05:50:04.888Z,995.24
2017-09-12T05:51:04.870Z,995.20
2017-09-12T05:51:53.966Z,995.23
2017-09-12T05:52:55.015Z,995.30
2017-09-12T05:53:56.483Z,995.28
2017-09-12T05:54:44.026Z,995.28
2017-09-12T05:55:39.137Z,995.31
2017-09-12T05:56:34.600Z,995.34
2017-09-12T05:57:34.370Z,995.31
2017-09-12T05:58:29.210Z,995.25
2017-09-12T05:59:23.279Z,995.34
2017-09-12T06:00:11.346Z,995.33
2017-09-12T06:01:06.367Z,995.35
2017-09-12T06:02:00.325Z,995.39
2017-09-12T06:02:49.637Z,995.37
2017-09-12T06:03:55.521Z,995.41
2017-09-12T06:04:49.430Z,995.46
2017-09-12T06:05:43.610Z,995.42
2017-09-12T06:06:37.929Z,995.51
2017-09-12T06:07:37.624Z,995.48
2017-09-12T06:08:31.638Z,995.50
2017-09-12T06:09:26.720Z,995.45
2017-09-12T06:10:26.754Z,995.46
2017-09-12T06:11:20.776Z,995.42
2017-09-12T06:12:20.792Z,995.49
2017-09-12T06:13:15.758Z,995.49
2017-09-12T06:14:16.214Z,995.55
2017-09-12T06:15:11.064Z,995.55
2017-09-12T06:16:04.921Z,995.59
2017-09-12T06:17:05.001Z,995.64
2017-09-12T06:17:58.997Z,995.60
2017-09-12T06:18:59.002Z,995.56
2017-09-12T06:19:54.082Z,995.59
2017-09-12T06:20:49.499Z,995.55
2017-09-12T06:21:43.094Z,995.54
2017-09-12T06:22:37.238Z,995.63
2017-09-12T06:23:25.304Z,995.52
2017-09-12T06:24:19.229Z,995.58
2017-09-12T06:25:07.375Z,995.52
2017-09-12T06:26:02.403Z,995.55
2017-09-12T06:27:03.351Z,995.58
2017-09-12T06:28:04.475Z,995.57
2017-09-12T06:28:58.550Z,995.54
2017-09-12T06:29:47.494Z,995.59
2017-09-12T06:30:41.601Z,995.61
2017-09-12T06:31:36.974Z,995.70
2017-09-12T06:32:30.817Z,995.76
2017-09-12T06:33:24.911Z,995.66
2017-09-12T06:34:19.763Z,995.66
2017-09-12T06:35:17.241Z,995.73
2017-09-12T06:36:08.672Z,995.79
2017-09-12T06:37:01.902Z,995.79
2017-09-12T06:37:55.906Z,995.74
2017-09-12T06:38:49.966Z,995.76
2017-09-12T06:39:45.127Z,995.77
2017-09-12T06:40:45.995Z,995.85
2017-09-12T06:41:45.958Z,995.79
2017-09-12T06:42:40.019Z,995.86
2017-09-12T06:43:40.080Z,995.86
2017-09-12T06:44:34.125Z,995.87
2017-09-12T06:45:35.190Z,995.85
2017-09-12T06:46:29.424Z,995.87
2017-09-12T06:47:17.437Z,995.90
2017-09-12T06:48:12.831Z,995.89
2017-09-12T06:49:12.412Z,995.95
2017-09-12T06:50:06.590Z,995.96
2017-09-12T06:51:06.459Z,996.02
2017-09-12T06:51:55.452Z,996.03
2017-09-12T06:52:50.605Z,996.05
2017-09-12T06:53:50.508Z,996.09
2017-09-12T06:54:38.649Z,996.11
2017-09-12T06:55:38.699Z,996.01
2017-09-12T06:56:33.144Z,996.01
2017-09-12T06:57:26.736Z,995.94
2017-09-12T06:58:22.156Z,996.06
2017-09-12T06:59:15.807Z,996.10
2017-09-12T07:00:09.793Z,996.04
2017-09-12T07:00:58.926Z,996.13
2017-09-12T07:01:52.836Z,996.21
2017-09-12T07:02:41.982Z,996.15
2017-09-12T07:03:29.936Z,996.14
2017-09-12T07:04:25.046Z,996.04
2017-09-12T07:05:20.102Z,996.08
2017-09-12T07:06:14.123Z,996.09
2017-09-12T07:07:08.590Z,996.07
2017-09-12T07:07:57.186Z,996.16
2017-09-12T07:08:46.184Z,996.12
2017-09-12T07:09:40.259Z,996.06
2017-09-12T07:10:40.411Z,996.10
2017-09-12T07:11:29.369Z,996.12
2017-09-12T07:12:24.332Z,996.14
2017-09-12T07:13:19.465Z,996.13
2017-09-12T07:14:19.526Z,996.14
2017-09-12T07:15:13.615Z,996.15
2017-09-12T07:16:08.527Z,996.19
2017-09-12T07:17:02.669Z,996.20
2017-09-12T07:17:51.627Z,996.13
2017-09-12T07:18:52.659Z,996.19
2017-09-12T07:19:40.976Z,996.20
2017-09-12T07:20:34.940Z,996.15
2017-09-12T07:21:28.755Z,996.23
2017-09-12T07:22:17.853Z,996.25
2017-09-12T07:23:12.296Z,996.29
2017-09-12T07:24:12.366Z,996.25
2017-09-12T07:25:00.987Z,996.27
2017-09-12T07:25:54.985Z,996.34
2017-09-12T07:26:50.045Z,996.28
2017-09-12T07:27:45.077Z,996.41
2017-09-12T07:28:46.437Z,996.43
2017-09-12T07:29:35.612Z,996.34
2017-09-12T07:30:29.310Z,996.37
2017-09-12T07:31:18.215Z,996.38
2017-09-12T07:32:19.313Z,996.45
2017-09-12T07:33:07.363Z,996.56
2017-09-12T07:34:02.830Z,996.53
2017-09-12T07:34:56.532Z,996.50
2017-09-12T07:35:45.577Z,996.56
2017-09-12T07:36:45.504Z,996.62
2017-09-12T07:37:45.563Z,996.60
2017-09-12T07:38:34.851Z,996.64
2017-09-12T07:39:28.965Z,996.58
2017-09-12T07:40:28.848Z,996.60
2017-09-12T07:41:29.011Z,996.70
2017-09-12T07:42:22.776Z,996.82
2017-09-12T07:43:16.765Z,996.84
2017-09-12T07:44:11.299Z,996.68
2017-09-12T07:45:05.109Z,996.70
2017-09-12T07:45:59.193Z,996.74
2017-09-12T07:47:00.063Z,996.71
2017-09-12T07:47:53.964Z,996.74
2017-09-12T07:48:42.383Z,996.86
2017-09-12T07:49:37.187Z,996.78
2017-09-12T07:50:37.143Z,996.75
2017-09-12T07:51:31.640Z,996.72
2017-09-12T07:52:26.599Z,996.77
2017-09-12T07:53:26.605Z,996.83
2017-09-12T07:54:20.700Z,996.92
2017-09-12T07:55:15.765Z,996.98
2017-09-12T07:56:10.843Z,997.11
2017-09-12T07:56:59.841Z,997.01
2017-09-12T07:57:47.896Z,997.09
2017-09-12T07:58:36.846Z,997.10
2017-09-12T07:59:36.528Z,997.05
2017-09-12T08:00:24.715Z,997.14
2017-09-12T08:01:18.923Z,997.02
2017-09-12T08:02:12.725Z,997.00
2017-09-12T08:03:01.753Z,997.08
2017-09-12T08:03:56.236Z,997.03
2017-09-12T08:04:50.201Z,996.96
2017-09-12T08:05:49.817Z,997.01
2017-09-12T08:06:44.031Z,996.97
2017-09-12T08:07:43.958Z,997.00
2017-09-12T08:08:39.343Z,997.15
2017-09-12T08:09:33.115Z,997.26
2017-09-12T08:10:22.076Z,997.11
2017-09-12T08:11:17.138Z,997.32
2017-09-12T08:12:12.646Z,997.24
2017-09-12T08:13:12.545Z,997.29
2017-09-12T08:14:07.311Z,997.11
2017-09-12T08:15:07.359Z,997.26
2017-09-12T08:16:01.683Z,997.26
2017-09-12T08:17:01.332Z,997.45
2017-09-12T08:17:55.437Z,997.23
2017-09-12T08:18:55.494Z,997.41
2017-09-12T08:19:55.663Z,997.51
2017-09-12T08:20:49.633Z,997.43
2017-09-12T08:21:44.673Z,997.63
2017-09-12T08:22:38.934Z,997.46
2017-09-12T08:23:34.252Z,997.45
2017-09-12T08:24:27.764Z,997.29
2017-09-12T08:25:21.806Z,997.34
2017-09-12T08:26:17.209Z,997.21
2017-09-12T08:27:17.196Z,997.29
2017-09-12T08:28:12.277Z,997.35
2017-09-12T08:29:06.931Z,997.33
2017-09-12T08:30:00.468Z,997.32
2017-09-12T08:30:54.124Z,997.32
2017-09-12T08:31:48.602Z,997.55
2017-09-12T08:32:42.211Z,997.55
2017-09-12T08:33:31.625Z,997.59
2017-09-12T08:34:26.427Z,997.45
2017-09-12T08:35:21.647Z,997.48
2017-09-12T08:36:10.948Z,997.49
2017-09-12T08:37:05.621Z,997.46
2017-09-12T08:37:59.859Z,997.43
2017-09-12T08:38:54.978Z,997.52
2017-09-12T08:39:48.985Z,997.39
2017-09-12T08:40:42.965Z,997.44
2017-09-12T08:41:32.083Z,997.43
2017-09-12T08:42:27.079Z,997.62
2017-09-12T08:43:22.252Z,997.49
2017-09-12T08:44:11.219Z,997.54
2017-09-12T08:45:06.203Z,997.61
2017-09-12T08:45:55.356Z,997.74
2017-09-12T08:46:49.318Z,997.74
2017-09-12T08:47:44.382Z,997.63
2017-09-12T08:48:38.509Z,997.73
2017-09-12T08:49:32.420Z,997.81
2017-09-12T08:50:27.502Z,997.51
2017-09-12T08:51:27.572Z,997.78
2017-09-12T08:52:21.590Z,997.75
2017-09-12T08:53:15.737Z,997.70
2017-09-12T08:54:03.776Z,997.71
2017-09-12T08:54:58.772Z,997.56
2017-09-12T08:55:53.880Z,997.52
2017-09-12T08:56:42.923Z,997.47
2017-09-12T08:57:37.013Z,997.65
2017-09-12T08:58:36.936Z,997.85
2017-09-12T08:59:37.098Z,997.54
2017-09-12T09:00:31.118Z,997.43
2017-09-12T09:01:20.154Z,997.47
2017-09-12T09:02:14.221Z,997.60
2017-09-12T09:03:09.270Z,997.71
2017-09-12T09:03:57.390Z,997.48
2017-09-12T09:04:46.388Z,997.64
2017-09-12T09:05:47.350Z,997.77
2017-09-12T09:06:42.394Z,997.94
2017-09-12T09:07:36.522Z,997.76
2017-09-12T09:08:36.587Z,997.75
2017-09-12T09:09:30.610Z,997.88
2017-09-12T09:10:30.706Z,997.83
2017-09-12T09:11:25.770Z,997.75
2017-09-12T09:12:20.192Z,997.77
2017-09-12T09:13:19.835Z,997.87
2017-09-12T09:14:14.917Z,997.88
2017-09-12T09:15:03.002Z,997.63
2017-09-12T09:15:57.983Z,997.69
2017-09-12T09:16:53.062Z,997.82
2017-09-12T09:17:47.444Z,997.77
2017-09-12T09:18:41.159Z,997.79
2017-09-12T09:19:36.192Z,997.84
2017-09-12T09:20:31.288Z,997.91
2017-09-12T09:21:19.285Z,998.01
2017-09-12T09:22:14.458Z,997.85
2017-09-12T09:23:15.479Z,997.93
2017-09-12T09:24:15.507Z,997.84
2017-09-12T09:25:09.622Z,997.89
2017-09-12T09:26:03.620Z,997.81
2017-09-12T09:26:57.659Z,997.70
2017-09-12T09:27:51.688Z,997.91
2017-09-12T09:28:40.832Z,997.78
2017-09-12T09:29:34.742Z,997.75
2017-09-12T09:30:30.075Z,997.83
2017-09-12T09:31:24.939Z,998.03
2017-09-12T09:32:19.131Z,998.24
2017-09-12T09:33:13.946Z,997.87
2017-09-12T09:34:08.031Z,997.80
2017-09-12T09:34:57.069Z,997.92
2017-09-12T09:35:52.427Z,997.81
2017-09-12T09:36:46.231Z,997.76
2017-09-12T09:37:35.315Z,997.90
2017-09-12T09:38:30.575Z,997.85
2017-09-12T09:39:19.539Z,997.77
2017-09-12T09:40:13.497Z,997.73
2017-09-12T09:41:07.569Z,997.69
2017-09-12T09:42:01.557Z,997.79
2017-09-12T09:42:49.605Z,997.84
2017-09-12T09:43:44.763Z,997.83
2017-09-12T09:44:38.792Z,997.83
2017-09-12T09:45:38.773Z,997.80
2017-09-12T09:46:33.752Z,997.89
2017-09-12T09:47:33.579Z,997.97
2017-09-12T09:48:33.851Z,998.28
2017-09-12T09:49:22.549Z,998.23
2017-09-12T09:50:22.897Z,998.35
2017-09-12T09:51:11.910Z,998.12
2017-09-12T09:52:11.891Z,998.20
2017-09-12T09:53:06.923Z,998.15
2017-09-12T09:53:55.845Z,998.18
2017-09-12T09:54:50.083Z,998.20
2017-09-12T09:55:39.089Z,998.05
2017-09-12T09:56:33.136Z,998.33
2017-09-12T09:57:33.168Z,998.49
2017-09-12T09:58:27.405Z,998.31
2017-09-12T09:59:21.416Z,998.18
2017-09-12T10:00:21.595Z,998.26
2017-09-12T10:01:10.661Z,998.08
2017-09-12T10:02:04.678Z,997.95
2017-09-12T10:03:04.792Z,998.04
2017-09-12T10:04:04.835Z,998.07
2017-09-12T10:04:58.784Z,998.15
2017-09-12T10:05:52.898Z,997.83
2017-09-12T10:06:47.090Z,997.87
2017-09-12T10:07:34.950Z,997.83
2017-09-12T10:08:35.098Z,997.77
2017-09-12T10:09:29.106Z,997.87
2017-09-12T10:10:29.776Z,997.95
2017-09-12T10:11:24.113Z,997.97
2017-09-12T10:12:19.086Z,998.08
2017-09-12T10:13:08.133Z,998.15
2017-09-12T10:14:01.966Z,998.14
2017-09-12T10:14:51.199Z,998.07
2017-09-12T10:15:45.422Z,998.27
2017-09-12T10:16:34.447Z,998.41
2017-09-12T10:17:29.555Z,998.21
2017-09-12T10:18:24.711Z,998.23
2017-09-12T10:19:24.737Z,998.18
2017-09-12T10:20:19.738Z,998.17
2017-09-12T10:21:13.767Z,997.99
2017-09-12T10:22:13.872Z,998.10
2017-09-12T10:23:08.089Z,998.05
2017-09-12T10:24:07.944Z,998.11
2017-09-12T10:25:03.039Z,998.02
2017-09-12T10:25:52.074Z,998.04
2017-09-12T10:26:46.048Z,998.04
2017-09-12T10:27:41.138Z,998.01
2017-09-12T10:28:36.523Z,997.93
2017-09-12T10:29:25.340Z,997.97
2017-09-12T10:30:20.286Z,998.07
2017-09-12T10:31:14.416Z,998.10
2017-09-12T10:32:02.108Z,998.07
2017-09-12T10:32:51.395Z,998.03
2017-09-12T10:33:46.476Z,998.02
2017-09-12T10:34:40.579Z,998.22
2017-09-12T10:35:34.600Z,998.22
2017-09-12T10:36:28.718Z,998.07
2017-09-12T10:37:23.568Z,998.25
2017-09-12T10:38:17.676Z,998.08
2017-09-12T10:39:07.014Z,998.05
2017-09-12T10:40:00.815Z,998.35
2017-09-12T10:40:49.586Z,998.20
2017-09-12T10:41:43.528Z,998.41
2017-09-12T10:42:32.967Z,998.40
2017-09-12T10:43:32.891Z,998.17
2017-09-12T10:44:27.844Z,998.19
2017-09-12T10:45:17.214Z,998.26
2017-09-12T10:46:11.938Z,998.27
2017-09-12T10:47:06.169Z,998.34
2017-09-12T10:48:00.658Z,998.25
2017-09-12T10:48:54.923Z,998.26
2017-09-12T10:49:44.482Z,998.18
2017-09-12T10:50:38.449Z,998.28
2017-09-12T10:51:33.126Z,998.23
2017-09-12T10:52:28.309Z,998.35
2017-09-12T10:53:23.571Z,998.34
2017-09-12T10:54:17.374Z,998.34
2017-09-12T10:55:18.784Z,998.37
2017-09-12T10:56:18.454Z,998.22
2017-09-12T10:57:13.118Z,998.23
2017-09-12T10:58:07.463Z,998.24
2017-09-12T10:59:07.533Z,998.39
2017-09-12T11:00:02.656Z,998.44
2017-09-12T11:00:57.804Z,998.38
2017-09-12T11:01:52.028Z,998.44
2017-09-12T11:02:39.952Z,998.54
2017-09-12T11:03:28.785Z,998.37
2017-09-12T11:04:24.103Z,998.48
2017-09-12T11:05:24.179Z,998.26
2017-09-12T11:06:19.173Z,998.26
2017-09-12T11:07:13.418Z,998.26
2017-09-12T11:08:13.580Z,998.27
2017-09-12T11:09:02.316Z,998.34
2017-09-12T11:09:56.599Z,998.44
2017-09-12T11:10:51.295Z,998.48
2017-09-12T11:11:45.639Z,998.40
2017-09-12T11:12:40.350Z,998.69
2017-09-12T11:13:34.345Z,998.73
2017-09-12T11:14:29.373Z,998.49
2017-09-12T11:15:18.391Z,998.55
2017-09-12T11:16:08.024Z,998.60
2017-09-12T11:17:02.051Z,998.44
2017-09-12T11:18:01.964Z,998.49
2017-09-12T11:18:55.947Z,998.47
2017-09-12T11:19:56.239Z,998.41
2017-09-12T11:20:44.159Z,998.44